sensor_id;sensor_type;location;lat;lon;timestamp;P1;durP1;ratioP1;P2;durP2;ratioP2
22030;SDS011;11179;52.106;21.024;2023-04-05T00:01:11;49.80;;;26.30;;
22030;SDS011;11179;52.106;21.024;2023-04-05T00:03:37;46.80;;;24.43;;
22030;SDS011;11179;52.106;21.024;2023-04-05T00:06:04;55.08;;;25.73;;
22030;SDS011;11179;52.106;21.024;2023-04-05T00:08:30;49.75;;;24.55;;
22030;SDS011;11179;52.106;21.024;2023-04-05T00:10:56;57.30;;;27.43;;
22030;SDS011;11179;52.106;21.024;2023-04-05T00:13:21;50.00;;;26.83;;
22030;SDS011;11179;52.106;21.024;2023-04-05T00:15:47;48.03;;;26.03;;
22030;SDS011;11179;52.106;21.024;2023-04-05T00:18:13;51.25;;;26.58;;
22030;SDS011;11179;52.106;21.024;2023-04-05T00:20:46;53.15;;;26.23;;
22030;SDS011;11179;52.106;21.024;2023-04-05T00:23:12;56.75;;;27.48;;
22030;SDS011;11179;52.106;21.024;2023-04-05T00:25:38;55.60;;;27.23;;
22030;SDS011;11179;52.106;21.024;2023-04-05T00:28:03;58.67;;;29.77;;
22030;SDS011;11179;52.106;21.024;2023-04-05T00:30:29;56.97;;;26.27;;
22030;SDS011;11179;52.106;21.024;2023-04-05T00:32:54;57.57;;;27.73;;
22030;SDS011;11179;52.106;21.024;2023-04-05T00:35:20;58.60;;;26.80;;
22030;SDS011;11179;52.106;21.024;2023-04-05T00:37:45;57.83;;;29.07;;
22030;SDS011;11179;52.106;21.024;2023-04-05T00:40:10;56.90;;;28.50;;
22030;SDS011;11179;52.106;21.024;2023-04-05T00:42:36;56.90;;;28.80;;
22030;SDS011;11179;52.106;21.024;2023-04-05T00:45:01;55.40;;;27.60;;
22030;SDS011;11179;52.106;21.024;2023-04-05T00:47:27;58.13;;;27.80;;
22030;SDS011;11179;52.106;21.024;2023-04-05T00:49:52;50.67;;;26.90;;
22030;SDS011;11179;52.106;21.024;2023-04-05T00:52:18;56.77;;;28.07;;
22030;SDS011;11179;52.106;21.024;2023-04-05T00:54:47;55.92;;;27.48;;
22030;SDS011;11179;52.106;21.024;2023-04-05T00:57:13;59.20;;;28.88;;
22030;SDS011;11179;52.106;21.024;2023-04-05T00:59:40;60.35;;;30.30;;
22030;SDS011;11179;52.106;21.024;2023-04-05T01:02:12;61.63;;;30.67;;
22030;SDS011;11179;52.106;21.024;2023-04-05T01:04:51;58.63;;;30.20;;
22030;SDS011;11179;52.106;21.024;2023-04-05T01:07:37;62.20;;;29.17;;
22030;SDS011;11179;52.106;21.024;2023-04-05T01:10:08;57.63;;;28.17;;
22030;SDS011;11179;52.106;21.024;2023-04-05T01:12:37;63.10;;;30.40;;
22030;SDS011;11179;52.106;21.024;2023-04-05T01:15:03;63.45;;;31.70;;
22030;SDS011;11179;52.106;21.024;2023-04-05T01:17:30;59.70;;;29.58;;
22030;SDS011;11179;52.106;21.024;2023-04-05T01:20:01;60.47;;;28.65;;
22030;SDS011;11179;52.106;21.024;2023-04-05T01:25:09;70.43;;;35.28;;
22030;SDS011;11179;52.106;21.024;2023-04-05T01:27:55;74.57;;;35.42;;
22030;SDS011;11179;52.106;21.024;2023-04-05T01:33:38;65.72;;;32.45;;
22030;SDS011;11179;52.106;21.024;2023-04-05T01:38:41;60.17;;;31.50;;
22030;SDS011;11179;52.106;21.024;2023-04-05T01:41:10;65.03;;;31.55;;
22030;SDS011;11179;52.106;21.024;2023-04-05T01:43:35;58.70;;;30.27;;
22030;SDS011;11179;52.106;21.024;2023-04-05T01:46:01;65.10;;;31.70;;
22030;SDS011;11179;52.106;21.024;2023-04-05T01:48:26;65.27;;;30.07;;
22030;SDS011;11179;52.106;21.024;2023-04-05T01:50:51;69.93;;;30.63;;
22030;SDS011;11179;52.106;21.024;2023-04-05T01:53:17;69.13;;;32.03;;
22030;SDS011;11179;52.106;21.024;2023-04-05T01:55:42;57.20;;;28.63;;
22030;SDS011;11179;52.106;21.024;2023-04-05T01:58:08;66.83;;;32.20;;
22030;SDS011;11179;52.106;21.024;2023-04-05T02:00:33;67.23;;;29.37;;
22030;SDS011;11179;52.106;21.024;2023-04-05T02:02:58;61.07;;;29.27;;
22030;SDS011;11179;52.106;21.024;2023-04-05T02:05:24;65.03;;;32.30;;
22030;SDS011;11179;52.106;21.024;2023-04-05T02:07:49;58.27;;;30.10;;
22030;SDS011;11179;52.106;21.024;2023-04-05T02:10:15;60.47;;;30.43;;
22030;SDS011;11179;52.106;21.024;2023-04-05T02:12:41;66.03;;;32.03;;
22030;SDS011;11179;52.106;21.024;2023-04-05T02:15:07;58.40;;;29.70;;
22030;SDS011;11179;52.106;21.024;2023-04-05T02:17:33;67.30;;;32.40;;
22030;SDS011;11179;52.106;21.024;2023-04-05T02:20:03;56.50;;;28.83;;
22030;SDS011;11179;52.106;21.024;2023-04-05T02:22:31;58.83;;;30.45;;
22030;SDS011;11179;52.106;21.024;2023-04-05T02:24:56;61.03;;;29.47;;
22030;SDS011;11179;52.106;21.024;2023-04-05T02:27:21;62.00;;;30.93;;
22030;SDS011;11179;52.106;21.024;2023-04-05T02:29:47;60.50;;;30.27;;
22030;SDS011;11179;52.106;21.024;2023-04-05T02:32:12;64.73;;;32.03;;
22030;SDS011;11179;52.106;21.024;2023-04-05T02:34:37;59.70;;;29.97;;
22030;SDS011;11179;52.106;21.024;2023-04-05T02:37:05;58.40;;;28.80;;
22030;SDS011;11179;52.106;21.024;2023-04-05T02:39:30;63.63;;;30.20;;
22030;SDS011;11179;52.106;21.024;2023-04-05T02:41:56;67.47;;;32.40;;
22030;SDS011;11179;52.106;21.024;2023-04-05T02:44:23;59.40;;;30.13;;
22030;SDS011;11179;52.106;21.024;2023-04-05T02:46:48;61.60;;;31.10;;
22030;SDS011;11179;52.106;21.024;2023-04-05T02:49:13;57.10;;;30.43;;
22030;SDS011;11179;52.106;21.024;2023-04-05T02:51:39;59.40;;;30.53;;
22030;SDS011;11179;52.106;21.024;2023-04-05T02:54:05;69.63;;;30.93;;
22030;SDS011;11179;52.106;21.024;2023-04-05T02:56:30;63.33;;;29.60;;
22030;SDS011;11179;52.106;21.024;2023-04-05T02:58:56;65.97;;;33.03;;
22030;SDS011;11179;52.106;21.024;2023-04-05T03:01:21;58.37;;;30.20;;
22030;SDS011;11179;52.106;21.024;2023-04-05T03:03:47;66.03;;;31.48;;
22030;SDS011;11179;52.106;21.024;2023-04-05T03:06:13;65.73;;;30.67;;
22030;SDS011;11179;52.106;21.024;2023-04-05T03:08:39;58.03;;;29.97;;
22030;SDS011;11179;52.106;21.024;2023-04-05T03:11:13;61.85;;;30.00;;
22030;SDS011;11179;52.106;21.024;2023-04-05T03:13:39;62.97;;;30.57;;
22030;SDS011;11179;52.106;21.024;2023-04-05T03:16:05;63.97;;;30.53;;
22030;SDS011;11179;52.106;21.024;2023-04-05T03:18:30;63.30;;;31.80;;
22030;SDS011;11179;52.106;21.024;2023-04-05T03:20:56;65.47;;;32.63;;
22030;SDS011;11179;52.106;21.024;2023-04-05T03:23:23;64.57;;;32.60;;
22030;SDS011;11179;52.106;21.024;2023-04-05T03:25:52;71.55;;;32.95;;
22030;SDS011;11179;52.106;21.024;2023-04-05T03:28:20;61.42;;;30.45;;
22030;SDS011;11179;52.106;21.024;2023-04-05T03:30:45;71.03;;;31.97;;
22030;SDS011;11179;52.106;21.024;2023-04-05T03:33:10;53.80;;;25.43;;
22030;SDS011;11179;52.106;21.024;2023-04-05T03:35:36;61.53;;;31.40;;
22030;SDS011;11179;52.106;21.024;2023-04-05T03:38:01;74.23;;;32.10;;
22030;SDS011;11179;52.106;21.024;2023-04-05T03:40:26;62.23;;;29.43;;
22030;SDS011;11179;52.106;21.024;2023-04-05T03:42:52;64.23;;;30.20;;
22030;SDS011;11179;52.106;21.024;2023-04-05T03:45:17;68.27;;;30.23;;
22030;SDS011;11179;52.106;21.024;2023-04-05T03:47:43;70.13;;;32.10;;
22030;SDS011;11179;52.106;21.024;2023-04-05T03:50:08;63.80;;;34.43;;
22030;SDS011;11179;52.106;21.024;2023-04-05T03:52:34;62.53;;;31.30;;
22030;SDS011;11179;52.106;21.024;2023-04-05T03:55:00;66.90;;;31.90;;
22030;SDS011;11179;52.106;21.024;2023-04-05T03:57:25;64.90;;;32.30;;
22030;SDS011;11179;52.106;21.024;2023-04-05T03:59:53;63.38;;;31.70;;
22030;SDS011;11179;52.106;21.024;2023-04-05T04:02:18;59.33;;;32.33;;
22030;SDS011;11179;52.106;21.024;2023-04-05T04:04:43;62.47;;;29.97;;
22030;SDS011;11179;52.106;21.024;2023-04-05T04:07:09;61.03;;;31.40;;
22030;SDS011;11179;52.106;21.024;2023-04-05T04:09:34;62.87;;;30.03;;
22030;SDS011;11179;52.106;21.024;2023-04-05T04:12:00;64.70;;;31.67;;
22030;SDS011;11179;52.106;21.024;2023-04-05T04:14:25;65.60;;;31.93;;
22030;SDS011;11179;52.106;21.024;2023-04-05T04:16:51;63.47;;;32.77;;
22030;SDS011;11179;52.106;21.024;2023-04-05T04:19:17;64.13;;;32.10;;
22030;SDS011;11179;52.106;21.024;2023-04-05T04:21:43;62.78;;;31.38;;
22030;SDS011;11179;52.106;21.024;2023-04-05T04:24:16;60.85;;;30.55;;
22030;SDS011;11179;52.106;21.024;2023-04-05T04:26:46;67.63;;;31.63;;
22030;SDS011;11179;52.106;21.024;2023-04-05T04:29:12;58.08;;;30.75;;
22030;SDS011;11179;52.106;21.024;2023-04-05T04:31:40;57.13;;;30.52;;
22030;SDS011;11179;52.106;21.024;2023-04-05T04:34:09;57.78;;;29.85;;
22030;SDS011;11179;52.106;21.024;2023-04-05T04:36:35;65.10;;;31.40;;
22030;SDS011;11179;52.106;21.024;2023-04-05T04:39:03;63.45;;;33.13;;
22030;SDS011;11179;52.106;21.024;2023-04-05T04:41:31;65.18;;;33.47;;
22030;SDS011;11179;52.106;21.024;2023-04-05T04:43:58;67.35;;;33.05;;
22030;SDS011;11179;52.106;21.024;2023-04-05T04:46:27;68.63;;;34.13;;
22030;SDS011;11179;52.106;21.024;2023-04-05T04:48:55;70.72;;;33.25;;
22030;SDS011;11179;52.106;21.024;2023-04-05T04:51:21;72.82;;;33.35;;
22030;SDS011;11179;52.106;21.024;2023-04-05T04:53:47;69.80;;;35.40;;
22030;SDS011;11179;52.106;21.024;2023-04-05T04:56:12;69.60;;;35.90;;
22030;SDS011;11179;52.106;21.024;2023-04-05T04:58:38;66.53;;;32.70;;
22030;SDS011;11179;52.106;21.024;2023-04-05T05:01:06;63.23;;;32.93;;
22030;SDS011;11179;52.106;21.024;2023-04-05T05:03:33;69.70;;;33.92;;
22030;SDS011;11179;52.106;21.024;2023-04-05T05:06:00;74.70;;;37.30;;
22030;SDS011;11179;52.106;21.024;2023-04-05T05:08:26;75.55;;;36.35;;
22030;SDS011;11179;52.106;21.024;2023-04-05T05:10:51;69.23;;;34.83;;
22030;SDS011;11179;52.106;21.024;2023-04-05T05:13:17;73.47;;;34.53;;
22030;SDS011;11179;52.106;21.024;2023-04-05T05:15:42;68.27;;;36.53;;
22030;SDS011;11179;52.106;21.024;2023-04-05T05:18:08;70.27;;;37.30;;
22030;SDS011;11179;52.106;21.024;2023-04-05T05:20:34;83.32;;;36.13;;
22030;SDS011;11179;52.106;21.024;2023-04-05T05:22:59;67.10;;;33.67;;
22030;SDS011;11179;52.106;21.024;2023-04-05T05:25:25;73.13;;;36.83;;
22030;SDS011;11179;52.106;21.024;2023-04-05T05:27:51;78.47;;;38.43;;
22030;SDS011;11179;52.106;21.024;2023-04-05T05:30:16;77.80;;;36.83;;
22030;SDS011;11179;52.106;21.024;2023-04-05T05:32:42;70.73;;;34.93;;
22030;SDS011;11179;52.106;21.024;2023-04-05T05:35:08;71.20;;;36.60;;
22030;SDS011;11179;52.106;21.024;2023-04-05T05:37:33;68.27;;;35.20;;
22030;SDS011;11179;52.106;21.024;2023-04-05T05:40:00;100.43;;;37.40;;
22030;SDS011;11179;52.106;21.024;2023-04-05T05:42:26;81.63;;;34.27;;
22030;SDS011;11179;52.106;21.024;2023-04-05T05:44:52;83.20;;;36.80;;
22030;SDS011;11179;52.106;21.024;2023-04-05T05:47:17;86.53;;;35.40;;
22030;SDS011;11179;52.106;21.024;2023-04-05T05:49:43;86.00;;;35.70;;
22030;SDS011;11179;52.106;21.024;2023-04-05T05:52:08;78.77;;;36.07;;
22030;SDS011;11179;52.106;21.024;2023-04-05T05:54:33;77.60;;;32.83;;
22030;SDS011;11179;52.106;21.024;2023-04-05T05:56:59;71.13;;;31.73;;
22030;SDS011;11179;52.106;21.024;2023-04-05T05:59:24;71.20;;;31.87;;
22030;SDS011;11179;52.106;21.024;2023-04-05T06:01:50;75.93;;;32.83;;
22030;SDS011;11179;52.106;21.024;2023-04-05T06:04:15;63.87;;;30.53;;
22030;SDS011;11179;52.106;21.024;2023-04-05T06:06:41;58.63;;;30.33;;
22030;SDS011;11179;52.106;21.024;2023-04-05T06:09:08;63.22;;;29.05;;
22030;SDS011;11179;52.106;21.024;2023-04-05T06:11:34;62.90;;;29.30;;
22030;SDS011;11179;52.106;21.024;2023-04-05T06:14:00;59.83;;;30.77;;
22030;SDS011;11179;52.106;21.024;2023-04-05T06:16:25;61.93;;;29.40;;
22030;SDS011;11179;52.106;21.024;2023-04-05T06:18:51;57.30;;;28.90;;
22030;SDS011;11179;52.106;21.024;2023-04-05T06:21:16;56.33;;;28.80;;
22030;SDS011;11179;52.106;21.024;2023-04-05T06:23:41;71.00;;;29.43;;
22030;SDS011;11179;52.106;21.024;2023-04-05T06:26:07;57.13;;;27.70;;
22030;SDS011;11179;52.106;21.024;2023-04-05T06:28:33;66.57;;;28.00;;
22030;SDS011;11179;52.106;21.024;2023-04-05T06:30:59;55.37;;;28.90;;
22030;SDS011;11179;52.106;21.024;2023-04-05T06:33:25;56.53;;;26.53;;
22030;SDS011;11179;52.106;21.024;2023-04-05T06:35:50;55.33;;;26.77;;
22030;SDS011;11179;52.106;21.024;2023-04-05T06:38:16;62.37;;;29.13;;
22030;SDS011;11179;52.106;21.024;2023-04-05T06:40:41;63.17;;;25.50;;
22030;SDS011;11179;52.106;21.024;2023-04-05T06:43:06;56.17;;;25.50;;
22030;SDS011;11179;52.106;21.024;2023-04-05T06:45:32;51.33;;;26.30;;
22030;SDS011;11179;52.106;21.024;2023-04-05T06:47:57;62.67;;;27.13;;
22030;SDS011;11179;52.106;21.024;2023-04-05T06:50:23;54.57;;;24.80;;
22030;SDS011;11179;52.106;21.024;2023-04-05T06:52:48;51.13;;;23.40;;
22030;SDS011;11179;52.106;21.024;2023-04-05T06:55:13;47.20;;;23.73;;
22030;SDS011;11179;52.106;21.024;2023-04-05T06:57:39;43.47;;;21.93;;
22030;SDS011;11179;52.106;21.024;2023-04-05T07:00:04;48.37;;;21.13;;
22030;SDS011;11179;52.106;21.024;2023-04-05T07:02:37;39.05;;;18.67;;
22030;SDS011;11179;52.106;21.024;2023-04-05T07:05:02;42.00;;;18.97;;
22030;SDS011;11179;52.106;21.024;2023-04-05T07:07:33;44.63;;;18.58;;
22030;SDS011;11179;52.106;21.024;2023-04-05T07:10:02;36.25;;;18.35;;
22030;SDS011;11179;52.106;21.024;2023-04-05T07:12:28;39.07;;;19.27;;
22030;SDS011;11179;52.106;21.024;2023-04-05T07:14:53;43.37;;;18.77;;
22030;SDS011;11179;52.106;21.024;2023-04-05T07:17:18;38.70;;;17.17;;
22030;SDS011;11179;52.106;21.024;2023-04-05T07:19:44;37.60;;;16.53;;
22030;SDS011;11179;52.106;21.024;2023-04-05T07:22:10;38.80;;;15.00;;
22030;SDS011;11179;52.106;21.024;2023-04-05T07:24:35;42.43;;;17.83;;
22030;SDS011;11179;52.106;21.024;2023-04-05T07:27:00;40.43;;;17.03;;
22030;SDS011;11179;52.106;21.024;2023-04-05T07:29:26;34.90;;;16.40;;
22030;SDS011;11179;52.106;21.024;2023-04-05T07:31:52;40.00;;;14.60;;
22030;SDS011;11179;52.106;21.024;2023-04-05T07:34:17;41.87;;;13.43;;
22030;SDS011;11179;52.106;21.024;2023-04-05T07:36:42;31.97;;;14.40;;
22030;SDS011;11179;52.106;21.024;2023-04-05T07:39:08;38.30;;;14.60;;
22030;SDS011;11179;52.106;21.024;2023-04-05T07:41:33;44.33;;;15.60;;
22030;SDS011;11179;52.106;21.024;2023-04-05T07:44:02;38.33;;;17.13;;
22030;SDS011;11179;52.106;21.024;2023-04-05T07:46:27;45.10;;;17.03;;
22030;SDS011;11179;52.106;21.024;2023-04-05T07:48:53;34.03;;;15.63;;
22030;SDS011;11179;52.106;21.024;2023-04-05T07:51:19;33.13;;;13.90;;
22030;SDS011;11179;52.106;21.024;2023-04-05T07:53:44;36.73;;;15.20;;
22030;SDS011;11179;52.106;21.024;2023-04-05T07:56:10;33.10;;;14.83;;
22030;SDS011;11179;52.106;21.024;2023-04-05T07:58:37;25.90;;;12.00;;
22030;SDS011;11179;52.106;21.024;2023-04-05T08:01:06;21.70;;;9.27;;
22030;SDS011;11179;52.106;21.024;2023-04-05T08:03:32;23.77;;;11.13;;
22030;SDS011;11179;52.106;21.024;2023-04-05T08:06:17;24.90;;;11.50;;
22030;SDS011;11179;52.106;21.024;2023-04-05T08:08:42;23.20;;;10.40;;
22030;SDS011;11179;52.106;21.024;2023-04-05T08:11:09;20.13;;;10.07;;
22030;SDS011;11179;52.106;21.024;2023-04-05T08:13:34;27.07;;;10.77;;
22030;SDS011;11179;52.106;21.024;2023-04-05T08:16:02;20.40;;;8.73;;
22030;SDS011;11179;52.106;21.024;2023-04-05T08:18:28;27.97;;;10.80;;
22030;SDS011;11179;52.106;21.024;2023-04-05T08:20:53;40.43;;;15.93;;
22030;SDS011;11179;52.106;21.024;2023-04-05T08:23:20;23.03;;;9.97;;
22030;SDS011;11179;52.106;21.024;2023-04-05T08:25:46;21.43;;;8.90;;
22030;SDS011;11179;52.106;21.024;2023-04-05T08:28:11;19.23;;;7.67;;
22030;SDS011;11179;52.106;21.024;2023-04-05T08:30:37;16.83;;;7.83;;
22030;SDS011;11179;52.106;21.024;2023-04-05T08:33:03;17.05;;;7.40;;
22030;SDS011;11179;52.106;21.024;2023-04-05T08:35:28;18.00;;;7.60;;
22030;SDS011;11179;52.106;21.024;2023-04-05T08:37:54;18.97;;;9.57;;
22030;SDS011;11179;52.106;21.024;2023-04-05T08:40:19;20.40;;;7.47;;
22030;SDS011;11179;52.106;21.024;2023-04-05T08:42:45;15.60;;;7.30;;
22030;SDS011;11179;52.106;21.024;2023-04-05T08:45:21;16.63;;;6.82;;
22030;SDS011;11179;52.106;21.024;2023-04-05T08:47:49;25.45;;;10.82;;
22030;SDS011;11179;52.106;21.024;2023-04-05T08:50:17;31.93;;;10.60;;
22030;SDS011;11179;52.106;21.024;2023-04-05T08:52:42;25.60;;;10.70;;
22030;SDS011;11179;52.106;21.024;2023-04-05T08:55:14;24.30;;;9.47;;
22030;SDS011;11179;52.106;21.024;2023-04-05T08:57:41;20.60;;;9.10;;
22030;SDS011;11179;52.106;21.024;2023-04-05T09:00:08;23.00;;;8.03;;
22030;SDS011;11179;52.106;21.024;2023-04-05T09:02:35;22.53;;;8.23;;
22030;SDS011;11179;52.106;21.024;2023-04-05T09:05:01;15.33;;;7.80;;
22030;SDS011;11179;52.106;21.024;2023-04-05T09:07:32;20.83;;;6.93;;
22030;SDS011;11179;52.106;21.024;2023-04-05T09:09:59;15.90;;;7.07;;
22030;SDS011;11179;52.106;21.024;2023-04-05T09:12:26;18.13;;;8.00;;
22030;SDS011;11179;52.106;21.024;2023-04-05T09:14:52;15.87;;;7.27;;
22030;SDS011;11179;52.106;21.024;2023-04-05T09:17:18;17.07;;;6.13;;
22030;SDS011;11179;52.106;21.024;2023-04-05T09:19:43;16.93;;;7.30;;
22030;SDS011;11179;52.106;21.024;2023-04-05T09:22:09;16.10;;;5.80;;
22030;SDS011;11179;52.106;21.024;2023-04-05T09:27:03;13.23;;;6.10;;
22030;SDS011;11179;52.106;21.024;2023-04-05T09:29:30;15.33;;;7.10;;
22030;SDS011;11179;52.106;21.024;2023-04-05T09:31:55;17.30;;;6.30;;
22030;SDS011;11179;52.106;21.024;2023-04-05T09:34:21;12.70;;;6.00;;
22030;SDS011;11179;52.106;21.024;2023-04-05T09:36:48;9.53;;;5.30;;
22030;SDS011;11179;52.106;21.024;2023-04-05T09:39:13;14.47;;;6.27;;
22030;SDS011;11179;52.106;21.024;2023-04-05T09:41:40;16.03;;;5.73;;
22030;SDS011;11179;52.106;21.024;2023-04-05T09:44:05;13.43;;;5.37;;
22030;SDS011;11179;52.106;21.024;2023-04-05T09:46:34;13.07;;;5.67;;
22030;SDS011;11179;52.106;21.024;2023-04-05T09:49:01;19.73;;;5.37;;
22030;SDS011;11179;52.106;21.024;2023-04-05T09:51:34;17.70;;;5.90;;
22030;SDS011;11179;52.106;21.024;2023-04-05T09:54:08;9.07;;;5.00;;
22030;SDS011;11179;52.106;21.024;2023-04-05T09:56:35;15.80;;;5.60;;
22030;SDS011;11179;52.106;21.024;2023-04-05T09:59:05;13.33;;;5.20;;
22030;SDS011;11179;52.106;21.024;2023-04-05T10:01:31;10.60;;;5.27;;
22030;SDS011;11179;52.106;21.024;2023-04-05T10:03:57;17.87;;;5.30;;
22030;SDS011;11179;52.106;21.024;2023-04-05T10:06:30;13.07;;;5.00;;
22030;SDS011;11179;52.106;21.024;2023-04-05T10:09:01;11.07;;;5.50;;
22030;SDS011;11179;52.106;21.024;2023-04-05T10:11:26;11.60;;;6.23;;
22030;SDS011;11179;52.106;21.024;2023-04-05T10:13:52;15.43;;;5.80;;
22030;SDS011;11179;52.106;21.024;2023-04-05T10:16:19;13.83;;;6.23;;
22030;SDS011;11179;52.106;21.024;2023-04-05T10:18:48;29.13;;;6.23;;
22030;SDS011;11179;52.106;21.024;2023-04-05T10:21:16;15.47;;;6.27;;
22030;SDS011;11179;52.106;21.024;2023-04-05T10:23:45;16.80;;;6.47;;
22030;SDS011;11179;52.106;21.024;2023-04-05T10:26:19;15.67;;;6.90;;
22030;SDS011;11179;52.106;21.024;2023-04-05T10:28:54;11.00;;;5.60;;
22030;SDS011;11179;52.106;21.024;2023-04-05T10:34:38;13.93;;;5.80;;
22030;SDS011;11179;52.106;21.024;2023-04-05T10:37:11;16.37;;;6.53;;
22030;SDS011;11179;52.106;21.024;2023-04-05T10:39:50;18.10;;;6.60;;
22030;SDS011;11179;52.106;21.024;2023-04-05T10:42:19;18.40;;;6.77;;
22030;SDS011;11179;52.106;21.024;2023-04-05T10:44:51;14.47;;;7.20;;
22030;SDS011;11179;52.106;21.024;2023-04-05T10:47:24;15.97;;;7.50;;
22030;SDS011;11179;52.106;21.024;2023-04-05T10:49:52;21.03;;;7.57;;
22030;SDS011;11179;52.106;21.024;2023-04-05T10:52:21;17.73;;;7.40;;
22030;SDS011;11179;52.106;21.024;2023-04-05T10:54:46;12.70;;;6.63;;
22030;SDS011;11179;52.106;21.024;2023-04-05T10:57:13;20.30;;;8.37;;
22030;SDS011;11179;52.106;21.024;2023-04-05T10:59:40;24.43;;;9.20;;
22030;SDS011;11179;52.106;21.024;2023-04-05T11:02:07;15.73;;;7.00;;
22030;SDS011;11179;52.106;21.024;2023-04-05T11:04:33;17.33;;;8.03;;
22030;SDS011;11179;52.106;21.024;2023-04-05T11:07:14;18.27;;;8.53;;
22030;SDS011;11179;52.106;21.024;2023-04-05T11:09:51;17.13;;;7.73;;
22030;SDS011;11179;52.106;21.024;2023-04-05T11:12:19;16.23;;;6.83;;
22030;SDS011;11179;52.106;21.024;2023-04-05T11:15:47;16.07;;;6.90;;
22030;SDS011;11179;52.106;21.024;2023-04-05T11:18:07;14.07;;;6.90;;
22030;SDS011;11179;52.106;21.024;2023-04-05T11:20:46;12.90;;;6.00;;
22030;SDS011;11179;52.106;21.024;2023-04-05T11:23:15;13.00;;;5.57;;
22030;SDS011;11179;52.106;21.024;2023-04-05T11:25:46;14.87;;;5.43;;
22030;SDS011;11179;52.106;21.024;2023-04-05T11:28:37;9.40;;;4.83;;
22030;SDS011;11179;52.106;21.024;2023-04-05T11:31:11;13.20;;;5.93;;
22030;SDS011;11179;52.106;21.024;2023-04-05T11:36:09;11.03;;;4.63;;
22030;SDS011;11179;52.106;21.024;2023-04-05T11:38:35;10.73;;;5.70;;
22030;SDS011;11179;52.106;21.024;2023-04-05T11:41:04;12.20;;;5.60;;
22030;SDS011;11179;52.106;21.024;2023-04-05T11:43:35;13.07;;;5.50;;
22030;SDS011;11179;52.106;21.024;2023-04-05T11:46:02;10.93;;;4.70;;
22030;SDS011;11179;52.106;21.024;2023-04-05T11:48:30;9.10;;;5.37;;
22030;SDS011;11179;52.106;21.024;2023-04-05T11:50:56;9.63;;;4.63;;
22030;SDS011;11179;52.106;21.024;2023-04-05T11:53:21;14.73;;;6.90;;
22030;SDS011;11179;52.106;21.024;2023-04-05T11:55:48;13.67;;;6.20;;
22030;SDS011;11179;52.106;21.024;2023-04-05T11:58:21;14.43;;;6.07;;
22030;SDS011;11179;52.106;21.024;2023-04-05T12:00:56;10.27;;;4.93;;
22030;SDS011;11179;52.106;21.024;2023-04-05T12:03:23;11.23;;;5.90;;
22030;SDS011;11179;52.106;21.024;2023-04-05T12:05:51;11.17;;;5.50;;
22030;SDS011;11179;52.106;21.024;2023-04-05T12:08:20;12.63;;;5.23;;
22030;SDS011;11179;52.106;21.024;2023-04-05T12:10:53;14.30;;;5.57;;
22030;SDS011;11179;52.106;21.024;2023-04-05T12:13:31;12.03;;;5.83;;
22030;SDS011;11179;52.106;21.024;2023-04-05T12:15:57;13.07;;;5.20;;
22030;SDS011;11179;52.106;21.024;2023-04-05T12:18:24;11.73;;;4.87;;
22030;SDS011;11179;52.106;21.024;2023-04-05T12:20:51;12.63;;;5.60;;
22030;SDS011;11179;52.106;21.024;2023-04-05T12:23:17;11.10;;;5.77;;
22030;SDS011;11179;52.106;21.024;2023-04-05T12:25:46;15.27;;;5.87;;
22030;SDS011;11179;52.106;21.024;2023-04-05T12:28:12;10.37;;;4.97;;
22030;SDS011;11179;52.106;21.024;2023-04-05T12:33:35;12.63;;;5.40;;
22030;SDS011;11179;52.106;21.024;2023-04-05T12:36:05;14.63;;;5.17;;
22030;SDS011;11179;52.106;21.024;2023-04-05T12:38:32;11.03;;;5.03;;
22030;SDS011;11179;52.106;21.024;2023-04-05T12:41:03;9.77;;;5.03;;
22030;SDS011;11179;52.106;21.024;2023-04-05T12:43:41;14.43;;;5.53;;
22030;SDS011;11179;52.106;21.024;2023-04-05T12:46:10;10.97;;;5.30;;
22030;SDS011;11179;52.106;21.024;2023-04-05T12:48:36;12.40;;;6.50;;
22030;SDS011;11179;52.106;21.024;2023-04-05T12:51:02;11.63;;;5.40;;
22030;SDS011;11179;52.106;21.024;2023-04-05T12:53:29;12.77;;;7.03;;
22030;SDS011;11179;52.106;21.024;2023-04-05T12:55:55;12.90;;;5.60;;
22030;SDS011;11179;52.106;21.024;2023-04-05T12:58:22;10.30;;;6.00;;
22030;SDS011;11179;52.106;21.024;2023-04-05T13:00:58;10.50;;;4.73;;
22030;SDS011;11179;52.106;21.024;2023-04-05T13:03:24;11.57;;;6.00;;
22030;SDS011;11179;52.106;21.024;2023-04-05T13:05:50;10.70;;;4.60;;
22030;SDS011;11179;52.106;21.024;2023-04-05T13:08:16;15.50;;;5.93;;
22030;SDS011;11179;52.106;21.024;2023-04-05T13:10:45;15.33;;;6.23;;
22030;SDS011;11179;52.106;21.024;2023-04-05T13:13:14;12.03;;;4.67;;
22030;SDS011;11179;52.106;21.024;2023-04-05T13:15:41;44.40;;;5.73;;
22030;SDS011;11179;52.106;21.024;2023-04-05T13:18:07;11.93;;;5.90;;
22030;SDS011;11179;52.106;21.024;2023-04-05T13:20:32;10.40;;;4.87;;
22030;SDS011;11179;52.106;21.024;2023-04-05T13:22:58;11.57;;;5.00;;
22030;SDS011;11179;52.106;21.024;2023-04-05T13:25:23;10.10;;;5.57;;
22030;SDS011;11179;52.106;21.024;2023-04-05T13:27:49;12.27;;;5.07;;
22030;SDS011;11179;52.106;21.024;2023-04-05T13:30:15;10.90;;;4.90;;
22030;SDS011;11179;52.106;21.024;2023-04-05T13:32:41;12.23;;;5.70;;
22030;SDS011;11179;52.106;21.024;2023-04-05T13:35:06;9.70;;;4.70;;
22030;SDS011;11179;52.106;21.024;2023-04-05T13:37:32;11.30;;;4.63;;
22030;SDS011;11179;52.106;21.024;2023-04-05T13:39:57;11.43;;;5.90;;
22030;SDS011;11179;52.106;21.024;2023-04-05T13:42:23;17.27;;;5.20;;
22030;SDS011;11179;52.106;21.024;2023-04-05T13:44:48;10.43;;;5.67;;
22030;SDS011;11179;52.106;21.024;2023-04-05T13:47:14;12.00;;;5.30;;
22030;SDS011;11179;52.106;21.024;2023-04-05T13:49:40;9.80;;;5.23;;
22030;SDS011;11179;52.106;21.024;2023-04-05T13:52:06;12.17;;;5.10;;
22030;SDS011;11179;52.106;21.024;2023-04-05T13:54:31;11.60;;;5.90;;
22030;SDS011;11179;52.106;21.024;2023-04-05T13:56:56;21.97;;;6.43;;
22030;SDS011;11179;52.106;21.024;2023-04-05T13:59:23;14.27;;;5.93;;
22030;SDS011;11179;52.106;21.024;2023-04-05T14:01:48;13.03;;;5.90;;
22030;SDS011;11179;52.106;21.024;2023-04-05T14:04:14;11.37;;;6.27;;
22030;SDS011;11179;52.106;21.024;2023-04-05T14:06:40;11.83;;;6.07;;
22030;SDS011;11179;52.106;21.024;2023-04-05T14:09:05;11.93;;;6.70;;
22030;SDS011;11179;52.106;21.024;2023-04-05T14:11:32;15.23;;;6.63;;
22030;SDS011;11179;52.106;21.024;2023-04-05T14:13:58;14.73;;;5.90;;
22030;SDS011;11179;52.106;21.024;2023-04-05T14:16:23;12.00;;;6.00;;
22030;SDS011;11179;52.106;21.024;2023-04-05T14:18:49;13.90;;;5.23;;
22030;SDS011;11179;52.106;21.024;2023-04-05T14:21:14;10.73;;;5.10;;
22030;SDS011;11179;52.106;21.024;2023-04-05T14:23:40;11.33;;;5.57;;
22030;SDS011;11179;52.106;21.024;2023-04-05T14:26:05;14.23;;;5.97;;
22030;SDS011;11179;52.106;21.024;2023-04-05T14:28:31;12.43;;;5.23;;
22030;SDS011;11179;52.106;21.024;2023-04-05T14:30:56;10.67;;;5.70;;
22030;SDS011;11179;52.106;21.024;2023-04-05T14:33:23;12.30;;;6.80;;